Latest Coastal Weather Observations for Larapuna (Eddystone Point)

IDT60701

Issued at 7:11 pm EDT Monday 8 February 2016 (issued every 10 minutes, with the page automatically refreshed every 10 minutes)

About coastal observations | Map of coastal stations | Coastal observations for TAS | Marine services | Other Formats
Station Details ID: 092045 Name: LARAPUNA (EDDYSTONE POINT) Lat: -40.99 Lon: 148.35 Height: 19.7 m
Data from the previous 72 hours. | See also: Recent months at Larapuna (Eddystone Point)
Date/Time
EDT
Temp

°C
Wind Pressure Rain
since 9am
mm
Weather Cloud Vis
km
Sea
Height
m
Swell
Dir
 
Speed
knots
Gust
knots
hPa Trend Height
m
Period
s
Dir
08/07:00pm 21.2 N 5 7 1017.9 - 0.0 - - - - - - -
08/06:30pm 21.7 N 8 10 1017.6 - 0.0 - - - - - - -
08/06:00pm 22.1 N 9 11 1017.5 - 0.0 - - - - - - -
08/05:30pm 22.1 N 9 12 1017.4 - 0.0 - - - - - - -
08/05:00pm 21.7 N 10 12 1017.6 - 0.0 - - - - - - -
08/04:30pm 21.4 N 12 15 1017.6 - 0.0 - - - - - - -
08/04:00pm 22.9 N 11 14 1017.6 - 0.0 - - - - - - -
08/03:30pm 23.0 N 11 14 1017.5 - 0.0 - - - - - - -
08/03:00pm 23.3 N 12 15 1017.6 - 0.0 - - - - - - -
08/02:30pm 24.2 N 10 13 1017.7 - 0.0 - - - - - - -
08/02:00pm 24.1 N 11 14 1017.6 - 0.0 - - - - - - -
08/01:30pm 23.7 NNE 8 10 1017.8 - 0.0 - - - - - - -
08/01:00pm 23.3 NNE 8 10 1017.8 - 0.0 - - - - - - -
08/12:30pm 24.5 NE 9 11 1018.0 - 0.0 - - - - - - -
08/12:00pm 24.7 E 7 9 1018.0 - 0.0 - - - - - - -
08/11:30am 24.6 ESE 5 7 1018.2 - 0.0 - - - - - - -
08/11:00am 24.5 E 5 7 1018.2 - 0.0 - - - - - - -
08/10:30am 23.3 W 6 11 1018.0 - 0.0 - - - - - - -
08/10:00am 22.9 W 10 14 1018.1 - 0.0 - - - - - - -
08/09:30am 22.3 W 9 13 1018.0 - 0.0 - - - - - - -
08/09:00am 21.4 W 9 15 1018.2 - 0.0 - - - - - - -
08/08:30am 20.0 NW 5 6 1018.2 - 0.0 - - - - - - -
08/08:00am 18.6 WNW 6 8 1018.1 - 0.0 - - - - - - -
08/07:30am 17.7 WNW 7 8 1017.9 - 0.0 - - - - - - -
08/07:00am 16.8 WNW 8 9 1017.7 - 0.0 - - - - - - -
08/06:30am 16.5 WNW 9 10 1017.5 - 0.0 - - - - - - -
08/06:00am 16.5 WNW 8 9 1017.5 - 0.0 - - - - - - -
08/05:30am 16.7 WNW 8 9 1017.3 - 0.0 - - - - - - -
08/05:00am 16.6 WNW 9 10 1017.3 - 0.0 - - - - - - -
08/04:30am 17.0 W 10 11 1017.2 - 0.0 - - - - - - -
08/04:00am 17.1 WNW 9 11 1017.2 - 0.0 - - - - - - -
08/03:30am 17.2 WNW 9 11 1017.1 - 0.0 - - - - - - -
08/03:00am 17.3 W 9 11 1017.6 - 0.0 - - - - - - -
08/02:30am 17.0 W 9 11 1017.8 - 0.0 - - - - - - -
08/02:00am 17.3 WNW 9 11 1017.8 - 0.0 - - - - - - -
08/01:30am 17.8 WNW 9 11 1017.9 - 0.0 - - - - - - -
08/01:00am 18.9 NW 8 10 1018.0 - 0.0 - - - - - - -
08/12:30am 19.5 N 12 15 1017.8 - 0.0 - - - - - - -
08/12:00am 19.5 N 13 15 1017.9 - 0.0 - - - - - - -
 
Date/Time
EDT
Temp

°C
Wind Pressure Rain
since 9am
mm
Weather Cloud Vis
km
Sea
Height
m
Swell
Dir
 
Speed
knots
Gust
knots
hPa Trend Height
m
Period
s
Dir
07/11:30pm 19.4 N 12 13 1018.2 - 0.0 - - - - - - -
07/11:00pm 19.7 N 10 13 1018.2 - 0.0 - - - - - - -
07/10:30pm 19.9 N 11 13 1018.3 - 0.0 - - - - - - -
07/10:00pm 19.9 N 13 16 1018.4 - 0.0 - - - - - - -
07/09:30pm 19.9 N 12 16 1018.2 - 0.0 - - - - - - -
07/09:00pm 19.9 N 13 16 1017.6 - 0.0 - - - - - - -
07/08:30pm 19.9 NNE 15 17 1017.2 - 0.0 - - - - - - -
07/08:00pm 20.1 N 14 18 1016.9 - 0.0 - - - - - - -
07/07:30pm 20.4 NNE 11 14 1017.1 - 0.0 - - - - - - -
07/07:00pm 20.6 N 13 16 1017.0 - 0.0 - - - - - - -
07/06:30pm 21.0 N 12 16 1016.9 - 0.0 - - - - - - -
07/06:00pm 21.3 NNE 15 18 1016.8 - 0.0 - - - - - - -
07/05:30pm 21.3 NNE 16 19 1016.8 - 0.0 - - - - - - -
07/05:00pm 21.7 NNE 15 17 1017.0 - 0.0 - - - - - - -
07/04:30pm 21.5 NNE 14 17 1017.1 - 0.0 - - - - - - -
07/04:00pm 21.5 NNE 14 16 1017.2 - 0.0 - - - - - - -
07/03:30pm 21.9 NNE 16 18 1017.1 - 0.0 - - - - - - -
07/03:00pm 22.6 NE 14 16 1017.4 - 0.0 - - - - - - -
07/02:30pm 22.6 NNE 12 14 1017.7 - 0.0 - - - - - - -
07/02:00pm 21.7 NNE 11 14 1017.7 - 0.0 - - - - - - -
07/01:30pm 22.3 NNE 11 12 1018.1 - 0.0 - - - - - - -
07/01:00pm 22.0 NNE 8 10 1018.3 - 0.0 - - - - - - -
07/12:30pm 22.9 N 7 8 1018.5 - 0.0 - - - - - - -
07/12:00pm 21.5 NNE 10 12 1018.5 - 0.0 - - - - - - -
07/11:30am 21.4 NNE 9 11 1018.8 - 0.0 - - - - - - -
07/11:00am 21.4 N 9 11 1018.9 - 0.0 - - - - - - -
07/10:30am 21.2 N 7 10 1019.0 - 0.0 - - - - - - -
07/10:00am 20.7 NNW 6 9 1019.2 - 0.0 - - - - - - -
07/09:30am 20.6 NNW 6 8 1019.0 - 0.0 - - - - - - -
07/09:00am 20.4 NNW 4 6 1019.0 - 0.0 - - - - - - -
07/08:30am 20.4 N 6 7 1018.7 - 0.0 - - - - - - -
07/08:00am 19.7 N 9 11 1018.4 - 0.0 - - - - - - -
07/07:30am 19.6 NNE 5 8 1018.2 - 0.0 - - - - - - -
07/07:00am 19.0 NNE 6 7 1017.9 - 0.0 - - - - - - -
07/06:30am 17.8 NNW 3 4 1017.7 - 0.0 - - - - - - -
07/06:00am 17.6 NNW 1 4 1017.6 - 0.0 - - - - - - -
07/05:30am 17.4 WSW 3 4 1017.6 - 0.0 - - - - - - -
07/05:00am 17.5 WNW 3 6 1017.7 - 0.0 - - - - - - -
07/04:30am 17.4 WNW 4 6 1017.7 - 0.0 - - - - - - -
07/04:00am 18.8 N 7 9 1017.7 - 0.0 - - - - - - -
07/03:30am 19.0 N 9 11 1017.6 - 0.0 - - - - - - -
07/03:00am 19.0 N 9 11 1017.7 - 0.0 - - - - - - -
07/02:30am 18.9 N 9 11 1017.8 - 0.0 - - - - - - -
07/02:00am 19.1 N 9 11 1017.9 - 0.0 - - - - - - -
07/01:30am 19.3 N 11 13 1018.3 - 0.0 - - - - - - -
07/01:00am 19.3 N 11 14 1018.6 - 0.0 - - - - - - -
07/12:30am 19.4 N 10 13 1018.8 - 0.0 - - - - - - -
07/12:00am 19.7 N 11 13 1019.0 - 0.0 - - - - - - -
 
Date/Time
EDT
Temp

°C
Wind Pressure Rain
since 9am
mm
Weather Cloud Vis
km
Sea
Height
m
Swell
Dir
 
Speed
knots
Gust
knots
hPa Trend Height
m
Period
s
Dir
06/11:30pm 19.8 N 11 14 1019.2 - 0.0 - - - - - - -
06/11:00pm 19.6 N 12 15 1019.1 - 0.0 - - - - - - -
06/10:30pm 19.5 NNE 13 15 1019.1 - 0.0 - - - - - - -
06/10:00pm 19.6 N 12 14 1019.3 - 0.0 - - - - - - -
06/09:30pm 19.9 NNE 12 14 1019.3 - 0.0 - - - - - - -
06/09:00pm 19.9 NNE 10 12 1018.9 - 0.0 - - - - - - -
06/08:30pm 19.9 NNE 11 13 1018.7 - 0.0 - - - - - - -
06/08:00pm 20.0 NNE 11 13 1018.7 - 0.0 - - - - - - -
06/07:30pm 20.3 NNE 11 13 1018.5 - 0.0 - - - - - - -
06/07:00pm 20.4 NNE 13 15 1018.5 - 0.0 - - - - - - -
06/06:30pm 21.1 NE 12 13 1018.5 - 0.0 - - - - - - -
06/06:00pm 21.8 NE 11 12 1018.6 - 0.0 - - - - - - -
06/05:30pm 21.6 NE 11 14 1018.8 - 0.0 - - - - - - -
06/05:00pm 22.9 NE 11 13 1018.9 - 0.0 - - - - - - -
06/04:30pm 23.1 NE 12 14 1019.0 - 0.0 - - - - - - -
06/04:00pm 23.2 NE 11 13 1019.1 - 0.0 - - - - - - -
06/03:30pm 23.1 NE 8 10 1019.6 - 0.0 - - - - - - -
06/03:00pm 23.6 NE 7 9 1019.9 - 0.0 - - - - - - -
06/02:30pm 23.5 NE 7 8 1020.2 - 0.0 - - - - - - -
06/02:00pm 23.0 NNE 5 7 1020.5 - 0.0 - - - - - - -
06/01:30pm 22.4 NNE 5 6 1020.8 - 0.0 - - - - - - -
06/01:00pm 21.3 NNE 4 8 1021.0 - 0.0 - - - - - - -
06/12:30pm 20.8 E 4 5 1021.3 - 0.0 - - - - - - -
06/12:00pm 21.5 ESE 5 6 1021.4 - 0.0 - - - - - - -
06/11:30am 21.0 ESE 5 7 1021.6 - 0.0 - - - - - - -
06/11:00am 20.4 SE 4 6 1021.7 - 0.0 - - - - - - -
06/10:30am 20.6 ESE 4 6 1021.7 - 0.0 - - - - - - -
06/10:00am 20.2 NE 3 4 1021.6 - 0.0 - - - - - - -
06/09:30am 20.1 N 6 7 1021.6 - 0.0 - - - - - - -
06/09:00am 19.0 NNE 11 13 1021.5 - 0.0 - - - - - - -
06/08:30am 19.6 N 6 7 1021.4 - 0.0 - - - - - - -
06/08:00am 19.3 NNE 5 6 1021.2 - 0.0 - - - - - - -
06/07:30am 19.5 NNE 10 12 1021.0 - 0.0 - - - - - - -
06/07:00am 19.1 NNE 11 12 1020.9 - 0.0 - - - - - - -
06/06:30am 18.7 NE 10 11 1020.8 - 0.0 - - - - - - -
06/06:00am 18.4 SE 6 7 1020.7 - 0.0 - - - - - - -
06/05:30am 18.3 ESE 4 6 1020.7 - 0.0 - - - - - - -
06/05:00am 18.4 E 6 8 1020.8 - 0.0 - - - - - - -
06/04:30am 18.6 E 7 9 1020.9 - 0.0 - - - - - - -
06/04:00am 18.5 ESE 7 10 1021.1 - 0.0 - - - - - - -
06/03:30am 18.4 ESE 10 12 1021.3 - 0.0 - - - - - - -
06/03:00am 18.1 ESE 9 11 1021.6 - 0.0 - - - - - - -
06/02:30am 18.0 ESE 11 13 1021.8 - 0.0 - - - - - - -
06/02:00am 18.4 E 9 12 1022.2 - 0.0 - - - - - - -
06/01:30am 18.6 ESE 11 14 1022.6 - 0.0 - - - - - - -
06/01:00am 18.7 ESE 10 13 1022.8 - 0.0 - - - - - - -
06/12:30am 19.0 E 10 12 1023.1 - 0.0 - - - - - - -
06/12:00am 18.9 ESE 9 11 1023.3 - 0.0 - - - - - - -
 
Date/Time
EDT
Temp

°C
Wind Pressure Rain
since 9am
mm
Weather Cloud Vis
km
Sea
Height
m
Swell
Dir
 
Speed
knots
Gust
knots
hPa Trend Height
m
Period
s
Dir
05/11:30pm 18.8 E 9 11 1023.4 - 0.0 - - - - - - -
05/11:00pm 19.2 E 8 10 1023.6 - 0.0 - - - - - - -
05/10:30pm 19.1 ENE 9 12 1023.7 - 0.0 - - - - - - -
05/10:00pm 19.2 E 7 10 1023.6 - 0.0 - - - - - - -
05/09:30pm 19.2 E 9 11 1023.4 - 0.0 - - - - - - -
05/09:00pm 19.2 E 7 9 1023.1 - 0.0 - - - - - - -
05/08:30pm 19.2 ENE 9 11 1022.9 - 0.0 - - - - - - -
05/08:00pm 19.3 E 9 11 1022.5 - 0.0 - - - - - - -
05/07:30pm 19.6 ENE 8 10 1022.1 - 0.0 - - - - - - -

Other Formats:

Comma delimited format used in spreadsheet applications
http://www.bom.gov.au/fwo/IDT60701/IDT60701.94983.axf

JavaScript Object Notation format (JSON) in row-major order
http://www.bom.gov.au/fwo/IDT60701/IDT60701.94983.json